Platzwetter Flugplatz Wels

Flugwetter Linz LOWL

[Quelle: ADDS]
METAR
LOWL 142020Z VRB01KT 3600 BR FEW006 BKN008 09/09 Q1013 BECMG 0800 BCFG =
AMD LOWL 142006Z 1420/1518 VRB02KT 1200 BR BKN008 TX20/1514Z TN10/1503Z TEMPO 1420/1422 3000 BR SCT007 BECMG 1422/1501 0800 FG BKN003 TEMPO 1500/1508 0100 VV000 BECMG 1509/1511 6000 FEW003
TAF
AMD LOWL 142006Z 1420/1518 VRB02KT 1200 BR BKN008 TX20/1514Z TN10/1503Z TEMPO 1420/1422 3000 BR SCT007 BECMG 1422/1501 0800 FG BKN003 TEMPO 1500/1508 0100 VV000 BECMG 1509/1511 6000 FEW003 =

Flugwetter Salzburg LOWS

[Quelle: ADDS]
METAR
LOWS 142020Z 18002KT CAVOK 11/10 Q1013 NOSIG =
LOWS 141715Z 1418/1518 16005KT CAVOK TX23/1514Z TN12/1504Z TEMPO 1510/1516 03004KT
TAF
LOWS 141715Z 1418/1518 16005KT CAVOK TX23/1514Z TN12/1504Z TEMPO 1510/1516 03004KT =

Wind - Verlauf

Windrichtung - Verlauf

Temperatur - Verlauf

Relative Luftfeuchtigkeit - Verlauf

Luftdruck - Verlauf

Cookies erleichtern die Bereitstellung unserer Dienste. Mit der Nutzung unserer Dienste erklären Sie sich damit einverstanden, dass wir Cookies verwenden.
Weitere Informationen Ok